createdAt,value
2022-12-07T00:01:17.676Z,100190.00
2022-12-07T00:06:15.445Z,100202.25
2022-12-07T00:11:20.509Z,100196.81
2022-12-07T00:16:19.672Z,100199.28
2022-12-07T00:21:25.409Z,100191.19
2022-12-07T00:26:24.491Z,100191.81
2022-12-07T00:31:27.346Z,100188.25
2022-12-07T00:36:27.216Z,100185.44
2022-12-07T00:41:26.156Z,100191.63
2022-12-07T00:46:23.403Z,100197.59
2022-12-07T00:51:22.378Z,100184.41
2022-12-07T00:56:25.249Z,100171.25
2022-12-07T01:01:21.736Z,100178.16
2022-12-07T01:06:20.547Z,100179.88
2022-12-07T01:11:19.909Z,100173.75
2022-12-07T01:16:17.519Z,100182.50
2022-12-07T01:21:22.936Z,100186.06
2022-12-07T01:26:23.471Z,100189.63
2022-12-07T01:31:22.524Z,100194.03
2022-12-07T01:36:20.212Z,100198.38
2022-12-07T01:41:17.186Z,100196.84
2022-12-07T01:46:13.543Z,100190.03
2022-12-07T01:51:14.530Z,100194.63
2022-12-07T01:56:16.712Z,100191.97
2022-12-07T02:01:13.186Z,100189.28
2022-12-07T02:06:13.057Z,100190.88
2022-12-07T02:11:10.286Z,100182.81
2022-12-07T02:16:34.301Z,100180.97
2022-12-07T02:21:55.893Z,100179.25
2022-12-07T02:27:10.398Z,100175.94
2022-12-07T02:32:17.878Z,100187.16
2022-12-07T02:37:32.424Z,100173.06
2022-12-07T02:42:37.315Z,100177.38
2022-12-07T02:47:35.193Z,100170.44
2022-12-07T02:52:31.711Z,100172.22
2022-12-07T02:58:03.130Z,100167.94
2022-12-07T03:03:11.577Z,100160.16
2022-12-07T03:08:17.781Z,100157.59
2022-12-07T03:13:29.333Z,100163.03
2022-12-07T03:18:28.697Z,100157.16
2022-12-07T03:23:27.085Z,100154.53
2022-12-07T03:28:27.966Z,100151.16
2022-12-07T03:33:32.293Z,100139.41
2022-12-07T03:38:43.402Z,100137.28
2022-12-07T03:43:41.946Z,100131.59
2022-12-07T03:48:47.132Z,100133.78
2022-12-07T03:53:53.496Z,100130.38
2022-12-07T03:58:50.178Z,100128.84
2022-12-07T04:03:46.681Z,100134.44
2022-12-07T04:08:43.046Z,100144.44
2022-12-07T04:13:58.051Z,100134.16
2022-12-07T04:18:54.379Z,100137.94
2022-12-07T04:23:50.705Z,100142.34
2022-12-07T04:28:47.010Z,100143.38
2022-12-07T04:33:43.349Z,100139.81
2022-12-07T04:38:39.718Z,100138.34
2022-12-07T04:43:36.964Z,100136.72
2022-12-07T04:48:33.344Z,100139.41
2022-12-07T04:53:29.814Z,100141.44
2022-12-07T04:58:26.137Z,100135.66
2022-12-07T05:03:22.482Z,100140.22
2022-12-07T05:08:18.888Z,100142.16
2022-12-07T05:13:15.343Z,100138.66
2022-12-07T05:18:13.439Z,100137.13
2022-12-07T05:23:09.817Z,100138.13
2022-12-07T05:28:07.042Z,100129.47
2022-12-07T05:33:03.833Z,100141.00
2022-12-07T05:38:00.314Z,100142.84
2022-12-07T05:43:01.239Z,100125.41
2022-12-07T05:48:00.565Z,100129.31
2022-12-07T05:52:56.928Z,100124.13
2022-12-07T05:58:22.510Z,100135.81
2022-12-07T06:03:19.021Z,100136.81
2022-12-07T06:08:16.466Z,100131.00
2022-12-07T06:13:12.904Z,100140.66
2022-12-07T06:18:09.336Z,100128.59
2022-12-07T06:23:05.718Z,100125.06
2022-12-07T06:28:02.067Z,100129.47
2022-12-07T06:32:58.431Z,100130.47
2022-12-07T06:37:54.823Z,100131.41
2022-12-07T06:42:51.355Z,100131.41
2022-12-07T06:47:47.787Z,100123.53
2022-12-07T06:52:44.364Z,100128.06
2022-12-07T06:57:40.983Z,100129.91
2022-12-07T07:02:37.600Z,100139.56
2022-12-07T07:07:51.892Z,100138.63
2022-12-07T07:12:55.671Z,100144.81
2022-12-07T07:17:53.694Z,100156.09
2022-12-07T07:22:50.383Z,100157.16
2022-12-07T07:27:47.213Z,100153.75
2022-12-07T07:32:43.604Z,100157.31
2022-12-07T07:37:39.996Z,100163.56
2022-12-07T07:42:36.512Z,100177.63
2022-12-07T07:47:32.914Z,100169.97
2022-12-07T07:52:29.269Z,100172.50
2022-12-07T07:57:25.671Z,100168.91
2022-12-07T08:02:22.918Z,100173.34
2022-12-07T08:07:19.294Z,100179.47
2022-12-07T08:12:15.746Z,100168.75
2022-12-07T08:17:12.117Z,100170.56
2022-12-07T08:22:08.511Z,100169.66
2022-12-07T08:27:04.957Z,100182.03
2022-12-07T08:32:06.589Z,100181.81
2022-12-07T08:37:05.709Z,100180.38
2022-12-07T08:42:02.062Z,100182.16
2022-12-07T08:47:02.522Z,100175.34
2022-12-07T08:51:58.902Z,100181.44
2022-12-07T08:56:59.545Z,100174.69
2022-12-07T09:01:56.665Z,100163.44
2022-12-07T09:06:54.701Z,100179.72
2022-12-07T09:11:51.279Z,100175.03
2022-12-07T09:16:47.803Z,100180.69
2022-12-07T09:21:44.246Z,100172.25
2022-12-07T09:26:41.397Z,100184.06
2022-12-07T09:31:38.748Z,100189.50
2022-12-07T09:36:35.586Z,100181.66
2022-12-07T09:41:33.224Z,100182.25
2022-12-07T09:46:35.945Z,100184.34
2022-12-07T09:51:32.983Z,100184.81
2022-12-07T09:56:34.257Z,100189.50
2022-12-07T10:01:34.146Z,100168.66
2022-12-07T10:06:30.585Z,100164.50
2022-12-07T10:11:27.085Z,100165.88
2022-12-07T10:16:44.770Z,100170.50
2022-12-07T10:22:01.086Z,100160.44
2022-12-07T10:26:58.022Z,100147.59
2022-12-07T10:31:58.924Z,100146.28
2022-12-07T10:37:10.090Z,100135.34
2022-12-07T10:42:07.010Z,100137.16
2022-12-07T10:47:25.974Z,100123.59
2022-12-07T10:53:02.653Z,100118.22
2022-12-07T10:58:11.316Z,100115.28
2022-12-07T11:03:24.081Z,100113.63
2022-12-07T11:08:47.775Z,100110.88
2022-12-07T11:13:48.566Z,100105.88
2022-12-07T11:18:53.690Z,100103.09
2022-12-07T11:24:04.851Z,100090.75
2022-12-07T11:29:38.187Z,100090.06
2022-12-07T11:34:37.445Z,100081.44
2022-12-07T11:39:37.931Z,100077.00
2022-12-07T11:45:00.815Z,100077.94
2022-12-07T11:50:31.260Z,100074.03
2022-12-07T11:55:35.766Z,100068.28
2022-12-07T12:00:33.726Z,100060.88
2022-12-07T12:05:31.179Z,100051.41
2022-12-07T12:10:50.707Z,100054.00
2022-12-07T12:16:01.351Z,100051.72
2022-12-07T12:21:05.113Z,100051.00
2022-12-07T12:26:05.924Z,100045.09
2022-12-07T12:31:10.173Z,100039.56
2022-12-07T12:36:26.541Z,100050.84
2022-12-07T12:41:39.165Z,100041.09
2022-12-07T12:46:49.652Z,100039.09
2022-12-07T12:51:50.316Z,100043.19
2022-12-07T12:57:08.365Z,100031.28
2022-12-07T13:02:24.092Z,100021.88
2022-12-07T13:07:59.564Z,100029.69
2022-12-07T13:13:03.491Z,100025.28
2022-12-07T13:18:03.308Z,100021.78
2022-12-07T13:23:00.325Z,100033.44
2022-12-07T13:28:04.071Z,100023.16
2022-12-07T13:33:01.022Z,100026.91
2022-12-07T13:37:57.465Z,100015.16
2022-12-07T13:43:02.266Z,100013.00
2022-12-07T13:48:00.183Z,100007.91
2022-12-07T13:52:58.881Z,100006.13
2022-12-07T13:57:56.554Z,100005.78
2022-12-07T14:03:00.359Z,99993.06
2022-12-07T14:08:23.548Z,100005.47
2022-12-07T14:13:36.313Z,99997.47
2022-12-07T14:18:41.293Z,99992.56
2022-12-07T14:23:39.675Z,99984.94
2022-12-07T14:28:38.027Z,99978.16
2022-12-07T14:33:34.593Z,99985.09
2022-12-07T14:38:30.946Z,99982.59
2022-12-07T14:43:27.306Z,99977.59
2022-12-07T14:53:56.885Z,99973.22
2022-12-07T14:58:54.355Z,99974.22
2022-12-07T15:03:51.139Z,99969.06
2022-12-07T15:08:47.910Z,99977.16
2022-12-07T15:14:02.859Z,99972.16
2022-12-07T15:19:26.734Z,99982.03
2022-12-07T15:24:15.672Z,99976.91
2022-12-07T15:29:12.537Z,99975.38
2022-12-07T15:34:08.883Z,99968.97
2022-12-07T15:39:14.204Z,99963.03
2022-12-07T15:44:32.312Z,99959.91
2022-12-07T15:49:29.181Z,99954.91
2022-12-07T15:54:28.472Z,99956.94
2022-12-07T15:59:26.584Z,99951.88
2022-12-07T16:04:23.174Z,99944.31
2022-12-07T16:09:19.798Z,99939.47
2022-12-07T16:14:16.316Z,99933.53
2022-12-07T16:19:12.727Z,99926.75
2022-12-07T16:24:11.064Z,99928.13
2022-12-07T16:29:07.546Z,99932.88
2022-12-07T16:34:04.084Z,99925.25
2022-12-07T16:39:01.295Z,99922.03
2022-12-07T16:43:58.146Z,99924.91
2022-12-07T16:48:54.536Z,99922.38
2022-12-07T16:53:53.533Z,99916.34
2022-12-07T16:58:50.730Z,99906.28
2022-12-07T17:03:47.764Z,99909.91
2022-12-07T17:08:44.443Z,99910.06
2022-12-07T17:14:00.310Z,99900.66
2022-12-07T17:18:57.297Z,99888.63
2022-12-07T17:23:53.717Z,99881.59
2022-12-07T17:28:51.158Z,99882.75
2022-12-07T17:33:48.071Z,99882.94
2022-12-07T17:38:45.116Z,99875.66
2022-12-07T17:43:41.461Z,99879.03
2022-12-07T17:48:37.829Z,99879.63
2022-12-07T17:53:34.173Z,99863.69
2022-12-07T17:58:30.558Z,99863.63
2022-12-07T18:03:26.941Z,99859.13
2022-12-07T18:08:23.402Z,99848.53
2022-12-07T18:13:38.185Z,99852.69
2022-12-07T18:18:35.121Z,99843.53
2022-12-07T18:23:33.416Z,99837.16
2022-12-07T18:28:31.071Z,99852.50
2022-12-07T18:33:27.456Z,99858.44
2022-12-07T18:38:23.944Z,99858.97
2022-12-07T18:43:20.552Z,99843.34
2022-12-07T18:48:19.054Z,99850.47
2022-12-07T18:53:15.921Z,99837.94
2022-12-07T18:58:12.281Z,99831.16
2022-12-07T19:03:08.705Z,99816.75
2022-12-07T19:08:05.151Z,99817.25
2022-12-07T19:13:02.343Z,99828.25
2022-12-07T19:17:58.763Z,99829.94
2022-12-07T19:22:55.944Z,99825.91
2022-12-07T19:27:52.405Z,99815.72
2022-12-07T19:32:48.757Z,99824.69
2022-12-07T19:37:45.165Z,99820.38
2022-12-07T19:42:41.580Z,99817.06
2022-12-07T19:47:37.969Z,99819.88
2022-12-07T19:52:36.870Z,99813.94
2022-12-07T19:57:33.475Z,99807.09
2022-12-07T20:02:29.922Z,99795.91
2022-12-07T20:07:26.304Z,99792.69
2022-12-07T20:12:41.206Z,99776.41
2022-12-07T20:17:37.580Z,99768.81
2022-12-07T20:22:33.948Z,99759.06
2022-12-07T20:27:30.303Z,99761.59
2022-12-07T20:32:26.676Z,99761.34
2022-12-07T20:37:23.113Z,99762.94
2022-12-07T20:42:37.720Z,99762.94
2022-12-07T20:47:34.863Z,99753.19
2022-12-07T20:52:31.351Z,99747.13
2022-12-07T20:57:27.706Z,99750.66
2022-12-07T21:02:24.485Z,99742.97
2022-12-07T21:07:20.959Z,99741.25
2022-12-07T21:12:17.324Z,99728.13
2022-12-07T21:17:13.700Z,99738.63
2022-12-07T21:22:10.067Z,99739.63
2022-12-07T21:27:06.766Z,99728.47
2022-12-07T21:32:03.603Z,99736.63
2022-12-07T21:37:00.042Z,99736.28
2022-12-07T21:41:56.437Z,99738.47
2022-12-07T21:46:53.006Z,99735.94
2022-12-07T21:51:49.447Z,99733.22
2022-12-07T21:56:45.813Z,99728.81
2022-12-07T22:01:47.138Z,99719.19
2022-12-07T22:06:45.442Z,99718.31
2022-12-07T22:11:41.863Z,99715.78
2022-12-07T22:16:39.406Z,99717.47
2022-12-07T22:21:36.015Z,99709.78
2022-12-07T22:26:32.740Z,99710.69
2022-12-07T22:31:29.429Z,99701.91
2022-12-07T22:36:26.211Z,99703.00
2022-12-07T22:41:26.386Z,99700.38
2022-12-07T22:46:24.055Z,99693.44
2022-12-07T22:51:37.693Z,99690.72
2022-12-07T22:56:36.386Z,99682.75
2022-12-07T23:01:32.955Z,99682.59
2022-12-07T23:06:32.431Z,99668.69
2022-12-07T23:11:50.428Z,99670.47
2022-12-07T23:16:47.032Z,99659.91
2022-12-07T23:21:43.838Z,99659.22
2022-12-07T23:26:44.692Z,99654.22
2022-12-07T23:31:41.220Z,99650.75
2022-12-07T23:36:37.688Z,99647.38
2022-12-07T23:41:34.209Z,99645.59
2022-12-07T23:46:32.547Z,99638.66
2022-12-07T23:51:29.357Z,99630.78
2022-12-07T23:56:27.775Z,99626.47
